Terminal Aerodrome Forecast
Issued by NWS

Home | Current Version | Previous Version | Text Only | Print | Product List | Glossary On
Versions: 1 2 3 4 5 6 7 8 9 10 11 12 13 14
000
FTUS45 KPSR 312100 AAA
TAFBLH
TAF AMD
KBLH 312101Z 3121/0118 19012G18KT P6SM FEW250
     FM010100 20009KT P6SM SCT250
     FM011700 20015G25KT P6SM SCT060 BKN250=

USA.gov is the U.S. government's official web portal to all federal, state and local government web resources and services.